Time;durP1;ratioP1;P1;durP2;ratioP2;P2;SDS_P1;SDS_P2;PMS_P1;PMS_P2;Temp;Humidity;BMP_temperature;BMP_pressure;BME280_temperature;BME280_humidity;BME280_pressure;Samples;Min_cycle;Max_cycle;Signal;HPM_P1;HPM_P2
2023/01/22 00:01:46;;;;;;;;;;;;;;;1.94;85.34;102204.44;4184510;28;20027;-62
2023/01/22 00:03:48;;;;;;;;;;;;;;;1.94;85.20;102211.56;4185518;28;19925;-61
2023/01/22 00:05:51;;;;;;;;;;;;;;;1.94;85.21;102212.44;4187482;28;20015;-63
2023/01/22 00:07:53;;;;;;;;;;;;;;;1.94;85.17;102212.44;4185679;28;20458;-63
2023/01/22 00:09:55;;;;;;;;;;;;;;;1.93;85.22;102207.19;4186704;28;20028;-63
2023/01/22 00:11:57;;;;;;;;;;;;;;;1.94;85.34;102204.44;4185320;28;20031;-63
2023/01/22 00:13:59;;;;;;;;;;;;;;;1.94;85.34;102211.56;4186668;28;20031;-63
2023/01/22 00:16:01;;;;;;;;;;;;;;;1.94;85.47;102208.91;4186152;28;20023;-63
2023/01/22 00:18:05;;;;;;;;;;;;;;;1.95;85.18;102214.16;4186030;28;20014;-63
2023/01/22 00:20:07;;;;;;;;;;;;;;;1.96;85.62;102215.03;4185750;28;20043;-63
2023/01/22 00:22:11;;;;;;;;;;;;;;;1.96;85.42;102220.34;4184967;28;20008;-63
2023/01/22 00:24:13;;;;;;;;;;;;;;;1.96;85.19;102209.69;4187735;28;20406;-63
2023/01/22 00:26:15;;;;;;;;;;;;;;;1.96;85.20;102212.38;4188311;28;20008;-63
2023/01/22 00:28:19;;;;;;;;;;;;;;;1.94;85.39;102208.91;4190639;28;20019;-63
2023/01/22 00:30:21;;;;;;;;;;;;;;;1.92;85.60;102208.13;4187549;28;20455;-62
2023/01/22 00:32:23;;;;;;;;;;;;;;;1.91;85.80;102209.94;4188688;28;20015;-63
2023/01/22 00:34:27;;;;;;;;;;;;;;;1.93;85.56;102209.88;4188474;28;20060;-63
2023/01/22 00:36:29;;;;;;;;;;;;;;;1.93;85.77;102205.38;4203256;28;20031;-63
2023/01/22 00:38:31;;;;;;;;;;;;;;;1.94;85.81;102212.44;4188430;28;20028;-62
2023/01/22 00:40:33;;;;;;;;;;;;;;;1.93;85.77;102208.06;4187353;28;20004;-62
2023/01/22 00:42:35;;;;;;;;;;;;;;;1.92;85.99;102211.66;4188259;28;20015;-61
2023/01/22 00:44:37;;;;;;;;;;;;;;;1.91;85.89;102215.28;4189533;28;20473;-61
2023/01/22 00:46:39;;;;;;;;;;;;;;;1.88;85.83;102212.78;4188329;28;20018;-61
2023/01/22 00:48:41;;;;;;;;;;;;;;;1.88;85.99;102215.44;4187768;28;20027;-63
2023/01/22 00:50:44;;;;;;;;;;;;;;;1.87;85.86;102212.88;4188157;28;20015;-62
2023/01/22 00:52:46;;;;;;;;;;;;;;;1.85;86.22;102214.72;4187596;28;20400;-61
2023/01/22 00:54:48;;;;;;;;;;;;;;;1.84;86.39;102213.88;4188953;28;20007;-63
2023/01/22 00:56:50;;;;;;;;;;;;;;;1.84;86.47;102211.22;4187041;28;20015;-63
2023/01/22 00:58:52;;;;;;;;;;;;;;;1.83;86.61;102212.16;4190248;28;20051;-64
2023/01/22 01:00:55;;;;;;;;;;;;;;;1.82;86.67;102206.91;4187301;28;20023;-63
2023/01/22 01:05:16;;;;;;;;;;;;;;;1.80;86.77;102213.19;4187188;28;19948;-63
2023/01/22 01:07:21;;;;;;;;;;;;;;;1.79;87.07;102206.16;4188544;28;20007;-63
2023/01/22 01:09:22;;;;;;;;;;;;;;;1.79;86.87;102208.81;4188686;28;20048;-61
2023/01/22 01:11:25;;;;;;;;;;;;;;;1.80;86.96;102213.19;4186002;28;20036;-62
2023/01/22 01:13:27;;;;;;;;;;;;;;;1.81;86.92;102219.38;4188136;28;20023;-63
2023/01/22 01:15:29;;;;;;;;;;;;;;;1.83;87.19;102217.47;4188739;28;20038;-62
2023/01/22 01:17:31;;;;;;;;;;;;;;;1.82;87.04;102218.44;4183349;28;20471;-62
2023/01/22 01:19:33;;;;;;;;;;;;;;;1.81;87.06;102219.38;4194371;28;20461;-62
2023/01/22 01:21:35;;;;;;;;;;;;;;;1.81;87.22;102214.06;4187524;28;20001;-63
2023/01/22 01:23:38;;;;;;;;;;;;;;;1.82;87.33;102226.44;4186787;28;20027;-63
2023/01/22 01:25:42;;;;;;;;;;;;;;;1.84;87.22;102223.69;4203527;28;20427;-63
2023/01/22 01:27:45;;;;;;;;;;;;;;;1.84;87.04;102229.03;4187677;28;20568;-63
2023/01/22 01:29:47;;;;;;;;;;;;;;;1.83;87.24;102228.13;4188347;28;19989;-63
2023/01/22 01:31:52;;;;;;;;;;;;;;;1.82;87.33;102228.22;4187627;28;20422;-64
2023/01/22 01:33:54;;;;;;;;;;;;;;;1.82;87.26;102230.88;4188932;28;20031;-65
2023/01/22 01:36:00;;;;;;;;;;;;;;;1.82;87.20;102238.88;4186946;28;20015;-64
2023/01/22 01:38:04;;;;;;;;;;;;;;;1.81;87.18;102240.69;4188522;28;20015;-64
2023/01/22 01:40:11;;;;;;;;;;;;;;;1.80;87.52;102239.84;4187858;28;20011;-64
2023/01/22 01:42:13;;;;;;;;;;;;;;;1.81;87.60;102240.69;4185905;28;20489;-63
2023/01/22 01:44:19;;;;;;;;;;;;;;;1.81;87.46;102235.38;4201937;28;20011;-64
2023/01/22 01:46:23;;;;;;;;;;;;;;;1.82;87.67;102241.53;4186401;28;19925;-64
2023/01/22 01:48:26;;;;;;;;;;;;;;;1.82;87.56;102238.88;4187903;28;20008;-63
2023/01/22 01:50:29;;;;;;;;;;;;;;;1.82;87.63;102241.53;4186401;28;20013;-64
2023/01/22 01:52:31;;;;;;;;;;;;;;;1.82;87.87;102239.75;4187323;28;20019;-63
2023/01/22 01:54:33;;;;;;;;;;;;;;;1.83;87.78;102243.28;4186151;28;20052;-64
2023/01/22 01:56:37;;;;;;;;;;;;;;;1.83;87.60;102244.13;4187452;28;20023;-64
2023/01/22 01:58:39;;;;;;;;;;;;;;;1.77;87.56;102237.34;4187600;28;20039;-64
2023/01/22 02:00:41;;;;;;;;;;;;;;;1.82;87.66;102249.53;4202210;28;20018;-62
2023/01/22 02:02:44;;;;;;;;;;;;;;;1.81;87.94;102248.69;4187014;28;20459;-63
2023/01/22 02:04:47;;;;;;;;;;;;;;;1.82;87.96;102249.53;4187231;28;20384;-63
2023/01/22 02:06:49;;;;;;;;;;;;;;;1.80;88.00;102250.50;4202108;28;20391;-63
2023/01/22 02:08:52;;;;;;;;;;;;;;;1.79;88.06;102251.44;4187998;28;20019;-62
2023/01/22 02:10:54;;;;;;;;;;;;;;;1.81;87.84;102254.00;4185302;28;20429;-63
2023/01/22 02:12:58;;;;;;;;;;;;;;;1.78;87.94;102260.34;4185779;28;20546;-63
2023/01/22 02:15:00;;;;;;;;;;;;;;;1.77;88.02;102245.34;4187185;28;20032;-63
2023/01/22 02:17:06;;;;;;;;;;;;;;;1.76;88.30;102254.25;4201634;28;20016;-63
2023/01/22 02:19:08;;;;;;;;;;;;;;;1.76;88.36;102248.94;4202385;28;20019;-63
2023/01/22 02:21:28;;;;;;;;;;;;;;;1.76;88.33;102248.94;4186609;28;20024;-63
2023/01/22 02:23:32;;;;;;;;;;;;;;;1.77;88.12;102256.00;4186100;28;20031;-61
2023/01/22 02:25:34;;;;;;;;;;;;;;;1.71;88.16;102237.66;4202779;28;20022;-62
2023/01/22 02:27:37;;;;;;;;;;;;;;;1.77;88.08;102249.78;4185709;28;19929;-63
2023/01/22 02:29:42;;;;;;;;;;;;;;;1.77;88.06;102249.78;4186055;28;20473;-63
2023/01/22 02:31:45;;;;;;;;;;;;;;;1.77;88.22;102242.66;4187162;28;20032;-62
2023/01/22 02:33:49;;;;;;;;;;;;;;;1.78;87.93;102240.84;4187144;28;20425;-63
2023/01/22 02:35:51;;;;;;;;;;;;;;;1.77;88.01;102244.44;4186305;28;20043;-62
2023/01/22 02:37:53;;;;;;;;;;;;;;;1.75;88.32;102247.19;4185952;28;20394;-63
2023/01/22 02:39:58;;;;;;;;;;;;;;;1.75;88.29;102239.22;4186661;28;20038;-62
2023/01/22 02:42:00;;;;;;;;;;;;;;;1.76;88.14;102253.41;4192586;28;20031;-62
2023/01/22 02:44:02;;;;;;;;;;;;;;;1.76;88.47;102245.41;4192657;28;20016;-63
2023/01/22 02:46:06;;;;;;;;;;;;;;;1.76;88.63;102245.41;4187825;28;20011;-64
2023/01/22 02:48:09;;;;;;;;;;;;;;;1.77;88.58;102247.13;4185939;28;19932;-63
2023/01/22 02:50:11;;;;;;;;;;;;;;;1.76;88.36;102243.59;4185089;28;20023;-63
2023/01/22 02:52:14;;;;;;;;;;;;;;;1.78;88.39;102238.19;4200620;28;20011;-63
2023/01/22 02:54:16;;;;;;;;;;;;;;;1.77;88.57;102249.78;4187001;28;20387;-64
2023/01/22 02:56:20;;;;;;;;;;;;;;;1.78;88.72;102246.19;4184886;28;20543;-63
2023/01/22 02:58:22;;;;;;;;;;;;;;;1.78;88.46;102257.69;4185334;28;20019;-64
2023/01/22 03:00:27;;;;;;;;;;;;;;;1.78;88.68;102252.38;4185036;28;20705;-63
2023/01/22 03:02:30;;;;;;;;;;;;;;;1.79;88.63;102253.25;4184743;28;19933;-63
2023/01/22 03:04:32;;;;;;;;;;;;;;;1.79;88.47;102259.41;4186411;28;20377;-64
2023/01/22 03:06:35;;;;;;;;;;;;;;;1.78;88.40;102260.34;4187010;28;20402;-64
2023/01/22 03:08:37;;;;;;;;;;;;;;;1.79;88.57;102261.25;4186521;28;20024;-64
2023/01/22 03:10:42;;;;;;;;;;;;;;;1.80;88.47;102268.25;4200771;28;19963;-63
2023/01/22 03:22:11;;;;;;;;;;;;;;;1.83;88.43;102272.59;4185019;28;20410;-62
2023/01/22 03:24:13;;;;;;;;;;;;;;;1.83;88.21;102269.91;4184721;28;20775;-63
2023/01/22 03:26:15;;;;;;;;;;;;;;;1.83;88.33;102281.41;4200954;28;20461;-63
2023/01/22 03:28:18;;;;;;;;;;;;;;;1.83;88.13;102277.91;4201519;28;20090;-63
2023/01/22 03:30:26;;;;;;;;;;;;;;;1.83;88.17;102278.75;4202610;28;19935;-63
2023/01/22 03:32:28;;;;;;;;;;;;;;;1.84;88.04;102277.81;4185945;28;20011;-63
2023/01/22 03:34:30;;;;;;;;;;;;;;;1.83;88.16;102272.59;4187512;28;20023;-63
2023/01/22 03:36:35;;;;;;;;;;;;;;;1.84;88.18;102271.66;4184686;28;20035;-63
2023/01/22 03:38:40;;;;;;;;;;;;;;;1.85;88.14;102276.91;4187058;28;20430;-63
2023/01/22 03:40:47;;;;;;;;;;;;;;;1.84;88.12;102274.31;4193054;28;20536;-64
2023/01/22 03:42:49;;;;;;;;;;;;;;;1.85;88.02;102270.69;4183746;28;20024;-63
2023/01/22 03:44:53;;;;;;;;;;;;;;;1.84;87.68;102267.16;4187136;28;19932;-63
2023/01/22 03:46:55;;;;;;;;;;;;;;;1.84;87.95;102274.31;4200773;28;20004;-63
2023/01/22 03:49:03;;;;;;;;;;;;;;;1.83;87.93;102270.75;4186014;28;20047;-64
2023/01/22 03:51:06;;;;;;;;;;;;;;;1.83;87.58;102269.91;4184521;28;19932;-63
2023/01/22 03:53:08;;;;;;;;;;;;;;;1.82;87.93;102271.72;4183047;28;20018;-63
2023/01/22 03:55:11;;;;;;;;;;;;;;;1.83;87.76;102284.09;4184429;28;20434;-63
2023/01/22 03:57:13;;;;;;;;;;;;;;;1.83;87.90;102276.09;4185022;28;20039;-64
2023/01/22 03:59:16;;;;;;;;;;;;;;;1.84;88.08;102279.63;4201589;28;19928;-64
2023/01/22 04:01:23;;;;;;;;;;;;;;;1.83;87.98;102277.91;4187137;28;20019;-63
2023/01/22 04:03:26;;;;;;;;;;;;;;;1.84;87.90;102283.16;4204167;28;20036;-63
2023/01/22 04:05:28;;;;;;;;;;;;;;;1.84;87.87;102285.81;4203737;28;19968;-63
2023/01/22 04:07:31;;;;;;;;;;;;;;;1.85;87.56;102281.34;4181386;28;19964;-64
2023/01/22 04:09:34;;;;;;;;;;;;;;;1.86;87.50;102281.25;4189706;28;20023;-63
2023/01/22 04:11:36;;;;;;;;;;;;;;;1.87;87.35;102282.13;4202850;28;20413;-63
2023/01/22 04:13:45;;;;;;;;;;;;;;;1.88;87.27;102279.41;4187340;28;20004;-63
2023/01/22 04:15:49;;;;;;;;;;;;;;;1.88;87.13;102274.06;4187421;28;19925;-63
2023/01/22 04:18:16;;;;;;;;;;;;;;;1.88;87.12;102279.41;4187762;28;20015;-63
2023/01/22 04:20:25;;;;;;;;;;;;;;;1.87;87.20;102283.00;4187301;28;20009;-63
2023/01/22 04:22:41;;;;;;;;;;;;;;;1.87;87.16;102290.13;4188739;28;19971;-63
2023/01/22 04:24:46;;;;;;;;;;;;;;;1.85;87.30;102292.00;4187510;28;20460;-63
2023/01/22 04:26:57;;;;;;;;;;;;;;;1.83;87.07;102294.75;4188089;28;20011;-63
2023/01/22 04:29:02;;;;;;;;;;;;;;;1.83;87.20;102302.75;4190395;28;20019;-63
2023/01/22 10:51:38;;;;;;;;;;;;;;;2.13;87.58;102574.81;2276465;26;20392;-60
2023/01/22 10:53:44;;;;;;;;;;;;;;;2.13;87.91;102569.47;4102888;28;20027;-62
2023/01/22 10:55:50;;;;;;;;;;;;;;;2.17;87.59;102570.16;4104161;28;20026;-63
2023/01/22 10:57:54;;;;;;;;;;;;;;;2.17;87.72;102571.03;4103121;28;20355;-61
2023/01/22 10:59:59;;;;;;;;;;;;;;;2.18;87.48;102574.56;4104476;28;20022;-61
2023/01/22 11:02:02;;;;;;;;;;;;;;;2.20;87.61;102570.00;4103260;28;20001;-61
2023/01/22 11:04:13;;;;;;;;;;;;;;;2.20;87.63;102570.00;4104478;28;20024;-62
2023/01/22 11:06:17;;;;;;;;;;;;;;;2.22;87.42;102576.13;4102409;28;20029;-60
2023/01/22 11:08:20;;;;;;;;;;;;;;;2.22;87.08;102575.28;4104284;28;20021;-62
2023/01/22 11:10:22;;;;;;;;;;;;;;;2.22;86.83;102585.94;4102514;28;20025;-61
2023/01/22 11:12:26;;;;;;;;;;;;;;;2.22;87.00;102577.94;4099363;28;20452;-60
2023/01/22 11:14:28;;;;;;;;;;;;;;;2.23;86.73;102574.34;4103982;28;19930;-60
2023/01/22 11:16:32;;;;;;;;;;;;;;;2.23;86.60;102575.19;4103143;28;20025;-62
2023/01/22 11:18:35;;;;;;;;;;;;;;;2.23;86.71;102579.66;4104425;28;20018;-61
2023/01/22 11:20:40;;;;;;;;;;;;;;;2.24;86.61;102579.59;4103829;28;20029;-62
2023/01/22 11:22:43;;;;;;;;;;;;;;;2.24;86.58;102581.38;4103120;28;20021;-59
2023/01/22 11:24:47;;;;;;;;;;;;;;;2.24;86.45;102571.59;4104505;28;20021;-61
2023/01/22 11:26:53;;;;;;;;;;;;;;;2.25;86.65;102575.13;4103581;28;20017;-61
2023/01/22 11:28:56;;;;;;;;;;;;;;;2.25;86.54;102575.13;4103303;28;20025;-60
2023/01/22 11:31:03;;;;;;;;;;;;;;;2.26;86.38;102567.03;4103563;28;20017;-60
2023/01/22 11:33:07;;;;;;;;;;;;;;;2.26;86.08;102574.19;4103245;28;20025;-60
2023/01/22 11:35:15;;;;;;;;;;;;;;;2.27;86.15;102570.56;4102218;28;19958;-61
2023/01/22 11:37:17;;;;;;;;;;;;;;;2.28;85.90;102573.16;4102090;28;20010;-61
2023/01/22 11:39:23;;;;;;;;;;;;;;;2.29;85.67;102568.69;4104611;28;20016;-60
2023/01/22 11:41:33;;;;;;;;;;;;;;;2.30;85.60;102573.94;4103069;28;20025;-59
2023/01/22 11:43:40;;;;;;;;;;;;;;;2.30;85.66;102571.28;4102566;28;20029;-61
2023/01/22 11:45:49;;;;;;;;;;;;;;;2.32;85.40;102576.50;4103080;28;20017;-62
2023/01/22 11:47:55;;;;;;;;;;;;;;;2.32;85.54;102577.41;4102185;28;20038;-62
2023/01/22 11:50:02;;;;;;;;;;;;;;;2.32;85.57;102571.19;4105014;28;20021;-62
2023/01/22 11:52:10;;;;;;;;;;;;;;;2.32;85.65;102574.72;4103765;28;20033;-62
2023/01/22 11:54:17;;;;;;;;;;;;;;;2.32;85.79;102557.84;4104361;28;20017;-62
2023/01/22 11:56:25;;;;;;;;;;;;;;;2.32;85.82;102572.06;4103068;28;19933;-60
2023/01/22 11:58:30;;;;;;;;;;;;;;;2.32;85.43;102561.41;4104526;28;20464;-60
2023/01/22 12:00:37;;;;;;;;;;;;;;;2.33;85.67;102568.44;4104228;28;20025;-61
2023/01/22 12:02:44;;;;;;;;;;;;;;;2.33;85.56;102568.44;4103423;28;20099;-60
2023/01/22 12:05:03;;;;;;;;;;;;;;;2.34;85.37;102566.66;4104877;28;20038;-59
2023/01/22 12:07:10;;;;;;;;;;;;;;;2.35;85.55;102576.34;4094804;28;20022;-61
2023/01/22 12:09:14;;;;;;;;;;;;;;;2.35;85.39;102576.34;4103694;28;20018;-61
2023/01/22 12:11:30;;;;;;;;;;;;;;;2.35;85.27;102565.69;4103238;28;19977;-61
2023/01/22 12:13:39;;;;;;;;;;;;;;;2.36;85.30;102574.56;4102998;28;20012;-58
2023/01/22 12:15:42;;;;;;;;;;;;;;;2.36;85.11;102577.25;4104267;28;20033;-62
2023/01/22 12:17:48;;;;;;;;;;;;;;;2.36;85.21;102578.09;4103033;28;20017;-63
2023/01/22 12:20:03;;;;;;;;;;;;;;;2.37;85.34;102574.50;4104715;28;20021;-61
2023/01/22 12:22:07;;;;;;;;;;;;;;;2.37;85.24;102574.50;4107218;28;20034;-57
2023/01/22 12:24:10;;;;;;;;;;;;;;;2.38;85.09;102584.19;4106611;28;20385;-62
2023/01/22 12:26:13;;;;;;;;;;;;;;;2.38;85.18;102573.53;4106452;28;20030;-60
2023/01/22 12:28:17;;;;;;;;;;;;;;;2.37;85.05;102569.16;4107463;28;20025;-59
2023/01/22 12:30:21;;;;;;;;;;;;;;;2.36;85.04;102572.75;4106517;28;20009;-61
2023/01/22 12:32:23;;;;;;;;;;;;;;;2.36;85.18;102574.56;4106594;28;20357;-59
2023/01/22 12:34:27;;;;;;;;;;;;;;;2.36;85.17;102574.56;4107558;28;20563;-60
2023/01/22 12:36:29;;;;;;;;;;;;;;;2.36;85.03;102575.44;4106994;28;20372;-59
2023/01/22 12:38:35;;;;;;;;;;;;;;;2.36;85.09;102575.44;4106870;28;19938;-59
2023/01/22 12:40:43;;;;;;;;;;;;;;;2.35;85.05;102576.34;4107360;28;20287;-61
2023/01/22 12:42:47;;;;;;;;;;;;;;;2.33;85.01;102587.09;4107075;28;20211;-62
2023/01/22 12:44:52;;;;;;;;;;;;;;;2.34;85.14;102585.31;4110447;28;20063;-63
2023/01/22 12:47:00;;;;;;;;;;;;;;;2.33;84.96;102583.59;4109255;28;20013;-66
2023/01/22 12:49:04;;;;;;;;;;;;;;;2.33;85.29;102586.25;4107777;28;20029;-61
2023/01/22 12:51:21;;;;;;;;;;;;;;;2.33;85.22;102588.91;4106857;28;20407;-62
2023/01/22 12:53:24;;;;;;;;;;;;;;;2.25;85.25;102569.78;4106965;28;20103;-61
2023/01/22 12:55:30;;;;;;;;;;;;;;;2.32;85.19;102582.72;4107724;28;20493;-62
2023/01/22 12:57:36;;;;;;;;;;;;;;;2.32;85.30;102580.06;4107063;28;20025;-59
2023/01/22 12:59:43;;;;;;;;;;;;;;;2.33;85.45;102572.91;4113813;28;20485;-61
2023/01/22 13:01:45;;;;;;;;;;;;;;;2.32;85.49;102572.06;4105611;28;20021;-61
2023/01/22 13:03:56;;;;;;;;;;;;;;;2.33;85.43;102567.59;4107381;28;20025;-61
2023/01/22 13:05:58;;;;;;;;;;;;;;;2.34;85.19;102571.97;4105733;28;20053;-62
2023/01/22 13:08:01;;;;;;;;;;;;;;;2.36;85.57;102577.25;4106604;28;20009;-60
2023/01/22 13:10:05;;;;;;;;;;;;;;;2.36;85.43;102572.75;4106654;28;20021;-63
2023/01/22 13:12:08;;;;;;;;;;;;;;;2.36;85.40;102567.41;4105922;28;19997;-62
2023/01/22 13:14:15;;;;;;;;;;;;;;;2.36;85.36;102571.91;4106364;28;20025;-61
2023/01/22 13:16:19;;;;;;;;;;;;;;;2.36;85.07;102574.56;4106219;28;20017;-63
2023/01/22 13:18:23;;;;;;;;;;;;;;;2.36;84.94;102582.56;4104642;28;20369;-62
2023/01/22 13:20:26;;;;;;;;;;;;;;;2.36;85.03;102578.09;4105766;28;19927;-62
2023/01/22 13:22:28;;;;;;;;;;;;;;;2.36;84.99;102580.75;4106093;28;20025;-61
2023/01/22 13:24:30;;;;;;;;;;;;;;;2.37;84.66;102587.81;4106797;28;20049;-62
2023/01/22 13:26:33;;;;;;;;;;;;;;;2.37;84.97;102585.16;4106110;28;20560;-61
2023/01/22 13:28:35;;;;;;;;;;;;;;;2.37;85.03;102584.28;4106469;28;20015;-60
2023/01/22 13:30:37;;;;;;;;;;;;;;;2.36;84.84;102583.44;4105371;28;20013;-61
2023/01/22 13:32:39;;;;;;;;;;;;;;;2.36;84.89;102586.09;4105792;28;20024;-62
2023/01/22 13:34:41;;;;;;;;;;;;;;;2.36;85.04;102591.44;4105833;28;20366;-58
2023/01/22 13:36:45;;;;;;;;;;;;;;;2.35;85.17;102597.69;4105832;28;20716;-60
2023/01/22 13:38:51;;;;;;;;;;;;;;;2.33;85.30;102587.09;4107055;28;20032;-58
2023/01/22 13:40:58;;;;;;;;;;;;;;;2.33;85.40;102580.91;4106377;28;19930;-59
2023/01/22 13:43:00;;;;;;;;;;;;;;;2.33;85.48;102588.91;4106044;28;20029;-58
2023/01/22 13:45:02;;;;;;;;;;;;;;;2.33;85.70;102584.44;4106537;28;20029;-60
2023/01/22 13:47:04;;;;;;;;;;;;;;;2.34;85.55;102583.50;4104745;28;20377;-62
2023/01/22 13:49:06;;;;;;;;;;;;;;;2.33;85.61;102584.44;4106360;28;20021;-60
2023/01/22 13:51:13;;;;;;;;;;;;;;;2.34;85.83;102593.31;4105577;28;20045;-62
2023/01/22 13:53:22;;;;;;;;;;;;;;;2.33;85.71;102583.59;4106119;28;20036;-62
2023/01/22 13:55:25;;;;;;;;;;;;;;;2.33;85.56;102588.91;4106458;28;20033;-61
2023/01/22 13:57:27;;;;;;;;;;;;;;;2.32;85.58;102590.72;4105927;28;20440;-63
2023/01/22 13:59:33;;;;;;;;;;;;;;;2.31;85.60;102589.00;4105158;28;20028;-60
2023/01/22 14:01:36;;;;;;;;;;;;;;;2.31;85.68;102594.31;4105031;28;20932;-60
2023/01/22 14:03:38;;;;;;;;;;;;;;;2.31;85.99;102596.13;4105729;28;20427;-60
2023/01/22 14:05:40;;;;;;;;;;;;;;;2.30;86.07;102591.72;4105534;28;20013;-59
2023/01/22 14:07:43;;;;;;;;;;;;;;;2.30;86.24;102595.28;4104044;28;20368;-60
2023/01/22 14:09:46;;;;;;;;;;;;;;;2.29;86.11;102601.53;4105924;28;20014;-60
2023/01/22 14:11:48;;;;;;;;;;;;;;;2.31;86.19;102599.66;4105190;28;20025;-61
2023/01/22 14:13:50;;;;;;;;;;;;;;;2.31;86.10;102593.47;4106526;28;20026;-61
2023/01/22 14:15:56;;;;;;;;;;;;;;;2.29;86.08;102598.88;4105263;28;20020;-60
2023/01/22 14:18:08;;;;;;;;;;;;;;;2.31;86.11;102609.47;4105492;28;20545;-60
2023/01/22 14:20:10;;;;;;;;;;;;;;;2.31;86.44;102606.81;4105825;28;20030;-62
2023/01/22 14:22:12;;;;;;;;;;;;;;;2.31;86.39;102606.81;4105176;28;20390;-62
2023/01/22 14:24:14;;;;;;;;;;;;;;;2.32;86.09;102605.84;4105484;28;20016;-62
2023/01/22 14:26:19;;;;;;;;;;;;;;;2.32;86.24;102606.72;4104452;28;20025;-61
2023/01/22 14:28:22;;;;;;;;;;;;;;;2.33;85.89;102608.44;4105426;28;20013;-62
2023/01/22 14:30:24;;;;;;;;;;;;;;;2.34;85.57;102611.97;4105030;28;20012;-68
2023/01/22 14:32:27;;;;;;;;;;;;;;;2.35;85.57;102616.34;4104355;28;20201;-62
2023/01/22 14:34:29;;;;;;;;;;;;;;;2.34;85.62;102614.66;4103945;28;20134;-59
2023/01/22 14:36:31;;;;;;;;;;;;;;;2.34;85.92;102617.31;4103849;28;20018;-60
2023/01/22 14:38:33;;;;;;;;;;;;;;;2.32;85.91;102613.84;4105845;28;20017;-60
2023/01/22 14:40:35;;;;;;;;;;;;;;;2.30;85.82;102616.63;4104653;28;20081;-59
2023/01/22 14:42:39;;;;;;;;;;;;;;;2.30;85.88;102616.63;4103444;28;20461;-62
2023/01/22 14:44:40;;;;;;;;;;;;;;;2.30;86.25;102623.72;4104568;28;19997;-59
2023/01/22 14:46:42;;;;;;;;;;;;;;;2.29;86.20;102625.53;4103173;28;20361;-61
2023/01/22 14:48:44;;;;;;;;;;;;;;;2.29;86.37;102627.34;4105689;28;20012;-61
2023/01/22 14:50:46;;;;;;;;;;;;;;;2.28;86.17;102626.47;4103725;28;20013;-60
2023/01/22 14:52:49;;;;;;;;;;;;;;;2.28;86.58;102629.13;4105037;28;20033;-60
2023/01/22 14:54:53;;;;;;;;;;;;;;;2.28;86.41;102622.97;4104952;28;20037;-61
2023/01/22 14:56:57;;;;;;;;;;;;;;;2.28;86.44;102621.16;4104309;28;20017;-62
2023/01/22 14:59:00;;;;;;;;;;;;;;;2.28;86.44;102628.28;4104689;28;20464;-60
2023/01/22 15:01:02;;;;;;;;;;;;;;;2.26;86.61;102624.84;4104232;28;20001;-60
2023/01/22 15:03:04;;;;;;;;;;;;;;;2.26;86.50;102624.84;4104638;28;20401;-61
2023/01/22 15:05:07;;;;;;;;;;;;;;;2.25;86.47;102631.97;4105103;28;20030;-59
2023/01/22 15:07:09;;;;;;;;;;;;;;;2.28;86.57;102638.94;4119299;28;20021;-61
2023/01/22 15:09:11;;;;;;;;;;;;;;;2.27;86.82;102637.22;4104569;28;20385;-60
2023/01/22 15:11:13;;;;;;;;;;;;;;;2.27;86.68;102642.56;4104460;28;20021;-60
2023/01/22 15:13:15;;;;;;;;;;;;;;;2.26;86.70;102640.84;4104674;28;20025;-60
2023/01/22 15:15:21;;;;;;;;;;;;;;;2.25;86.80;102639.97;4120159;28;20025;-62
2023/01/22 15:17:23;;;;;;;;;;;;;;;2.25;86.72;102641.78;4102614;28;20017;-60
2023/01/22 15:19:25;;;;;;;;;;;;;;;2.25;86.93;102644.44;4104801;28;20028;-61
2023/01/22 15:21:27;;;;;;;;;;;;;;;2.25;86.96;102644.44;4104001;28;20021;-59
2023/01/22 15:23:29;;;;;;;;;;;;;;;2.24;86.97;102643.59;4104219;28;19962;-62
2023/01/22 15:25:32;;;;;;;;;;;;;;;2.24;87.00;102642.69;4104059;28;20017;-59
2023/01/22 15:27:34;;;;;;;;;;;;;;;2.25;87.10;102642.63;4104127;28;20021;-62
2023/01/22 15:29:36;;;;;;;;;;;;;;;2.24;87.11;102646.25;4104669;28;20022;-59
2023/01/22 15:31:39;;;;;;;;;;;;;;;2.24;87.21;102651.59;4102639;28;20025;-61
2023/01/22 15:33:41;;;;;;;;;;;;;;;2.24;87.10;102648.91;4104089;28;20013;-61
2023/01/22 15:35:43;;;;;;;;;;;;;;;2.23;87.25;102651.66;4105450;28;20017;-61
2023/01/22 15:37:46;;;;;;;;;;;;;;;2.23;87.32;102655.19;4103512;28;20032;-61
2023/01/22 15:39:48;;;;;;;;;;;;;;;2.22;87.20;102648.09;4104263;28;20033;-61
2023/01/22 15:41:50;;;;;;;;;;;;;;;2.21;87.30;102659.72;4103893;28;20021;-62
2023/01/22 15:43:52;;;;;;;;;;;;;;;2.21;87.28;102662.41;4104242;28;19934;-59
2023/01/22 15:45:55;;;;;;;;;;;;;;;2.22;87.47;102664.09;4103651;28;20009;-59
2023/01/22 15:47:58;;;;;;;;;;;;;;;2.22;87.60;102665.91;4103726;28;21324;-60
2023/01/22 15:50:00;;;;;;;;;;;;;;;2.22;87.29;102672.09;4104358;28;20607;-61
2023/01/22 15:52:02;;;;;;;;;;;;;;;2.22;87.55;102672.09;4102918;28;20017;-61
2023/01/22 15:54:05;;;;;;;;;;;;;;;2.22;87.49;102684.56;4104327;28;20017;-61
2023/01/22 15:56:07;;;;;;;;;;;;;;;2.22;87.29;102677.44;4106813;28;20049;-60
2023/01/22 15:58:09;;;;;;;;;;;;;;;2.23;87.29;102683.66;4107346;28;20024;-60
2023/01/22 16:00:13;;;;;;;;;;;;;;;2.23;87.36;102688.97;4107607;28;20009;-58
2023/01/22 16:02:15;;;;;;;;;;;;;;;2.21;87.28;102689.06;4107286;28;20002;-60
2023/01/22 16:04:19;;;;;;;;;;;;;;;2.20;87.57;102687.31;4106273;28;19972;-61
2023/01/22 16:06:22;;;;;;;;;;;;;;;2.21;87.59;102694.38;4106048;28;20016;-62
2023/01/22 16:08:24;;;;;;;;;;;;;;;2.21;87.51;102694.38;4106668;28;20029;-60
2023/01/22 16:10:26;;;;;;;;;;;;;;;2.22;87.27;102700.56;4107904;28;20029;-60
2023/01/22 16:12:29;;;;;;;;;;;;;;;2.21;87.46;102702.38;4105304;28;20021;-61
2023/01/22 16:14:31;;;;;;;;;;;;;;;2.20;87.26;102697.13;4107482;28;20033;-62
2023/01/22 16:16:35;;;;;;;;;;;;;;;2.20;87.44;102711.31;4106599;28;20016;-62
2023/01/22 16:18:36;;;;;;;;;;;;;;;2.22;86.98;102708.56;4107104;28;20021;-62
2023/01/22 16:20:40;;;;;;;;;;;;;;;2.21;87.13;102704.16;4107144;28;20024;-62
2023/01/22 16:22:44;;;;;;;;;;;;;;;2.20;86.96;102705.97;4105351;28;20032;-61
2023/01/22 16:24:46;;;;;;;;;;;;;;;2.20;87.16;102715.78;4106510;28;20025;-61
2023/01/22 16:26:48;;;;;;;;;;;;;;;2.19;87.24;102703.38;4105941;28;20087;-59
2023/01/22 16:28:50;;;;;;;;;;;;;;;2.17;86.97;102709.66;4105644;28;20029;-62
2023/01/22 16:30:52;;;;;;;;;;;;;;;2.18;87.04;102713.19;4107360;28;20009;-60
2023/01/22 16:32:54;;;;;;;;;;;;;;;2.17;87.13;102712.31;4105209;28;20029;-60
2023/01/22 16:34:56;;;;;;;;;;;;;;;2.17;87.13;102714.97;4107628;28;20033;-60
2023/01/22 16:36:59;;;;;;;;;;;;;;;2.17;87.45;102714.13;4106040;28;20028;-57
2023/01/22 16:39:01;;;;;;;;;;;;;;;2.16;87.19;102721.28;4106121;28;20034;-60
2023/01/22 16:41:05;;;;;;;;;;;;;;;2.15;87.45;102714.19;4105908;28;20016;-62
2023/01/22 16:43:07;;;;;;;;;;;;;;;2.15;87.46;102721.34;4105291;28;20333;-61
2023/01/22 16:45:10;;;;;;;;;;;;;;;2.14;87.36;102725.78;4106423;28;19935;-62
2023/01/22 16:47:12;;;;;;;;;;;;;;;2.15;87.49;102722.19;4105373;28;20028;-60
2023/01/22 16:49:14;;;;;;;;;;;;;;;2.14;87.58;102728.47;4107041;28;20032;-60
2023/01/22 16:51:17;;;;;;;;;;;;;;;2.15;87.44;102724.00;4105755;28;20018;-60
2023/01/22 16:53:20;;;;;;;;;;;;;;;2.16;87.50;102726.59;4106549;28;20028;-61
2023/01/22 16:55:22;;;;;;;;;;;;;;;2.17;87.64;102722.97;4105390;28;20041;-61
2023/01/22 16:57:24;;;;;;;;;;;;;;;2.16;87.41;102723.94;4105700;28;20528;-61
2023/01/22 16:59:26;;;;;;;;;;;;;;;2.16;87.72;102723.06;4106219;28;20021;-61
2023/01/22 17:01:28;;;;;;;;;;;;;;;2.16;87.46;102729.28;4105562;28;20029;-61
2023/01/22 17:03:30;;;;;;;;;;;;;;;2.17;87.51;102735.47;4106512;28;20036;-57
2023/01/22 17:05:32;;;;;;;;;;;;;;;2.17;87.41;102730.13;4107059;28;19930;-61
2023/01/22 17:07:34;;;;;;;;;;;;;;;2.16;87.40;102728.38;4104978;28;20010;-62
2023/01/22 17:09:38;;;;;;;;;;;;;;;2.15;87.56;102740.88;4103593;28;20078;-60
2023/01/22 17:11:41;;;;;;;;;;;;;;;2.15;87.50;102737.34;4103851;28;20018;-61
2023/01/22 17:13:43;;;;;;;;;;;;;;;2.13;87.49;102740.06;4106366;28;20022;-61
2023/01/22 17:15:47;;;;;;;;;;;;;;;2.14;87.75;102747.13;4103184;28;20380;-61
2023/01/22 17:17:49;;;;;;;;;;;;;;;2.12;87.97;102746.34;4095932;28;20415;-60